createdAt,value
2019-04-29T00:02:00.568Z,2.83
2019-04-29T00:04:48.880Z,6.27
2019-04-29T00:07:37.346Z,4.27
2019-04-29T00:16:41.378Z,4.13
2019-04-29T00:19:44.772Z,4.77
2019-04-29T00:22:13.670Z,4.40
2019-04-29T00:24:42.614Z,5.60
2019-04-29T00:27:11.486Z,8.43
2019-04-29T00:29:59.666Z,4.40
2019-04-29T00:32:47.764Z,5.97
2019-04-29T00:35:55.100Z,4.90
2019-04-29T00:39:02.727Z,7.17
2019-04-29T00:42:05.615Z,7.20
2019-04-29T00:44:46.699Z,5.57
2019-04-29T00:47:28.089Z,6.80
2019-04-29T00:50:08.746Z,3.67
2019-04-29T00:52:50.303Z,6.03
2019-04-29T00:55:32.843Z,4.33
2019-04-29T00:58:14.128Z,5.00
2019-04-29T01:00:53.472Z,5.53
2019-04-29T01:03:41.806Z,6.30
2019-04-29T01:06:29.885Z,5.70
2019-04-29T01:12:26.825Z,5.00
2019-04-29T01:15:15.718Z,5.80
2019-04-29T01:18:04.305Z,5.50
2019-04-29T01:20:52.369Z,7.67
2019-04-29T01:23:40.475Z,6.57
2019-04-29T01:26:47.633Z,7.13
2019-04-29T01:29:35.739Z,8.20
2019-04-29T01:32:24.061Z,9.13
2019-04-29T01:35:12.208Z,9.07
2019-04-29T01:38:00.233Z,8.17
2019-04-29T01:41:07.861Z,8.10
2019-04-29T01:44:15.007Z,8.90
2019-04-29T01:46:56.408Z,8.50
2019-04-29T01:49:36.765Z,9.57
2019-04-29T01:52:17.369Z,8.87
2019-04-29T01:54:58.226Z,11.60
2019-04-29T01:57:39.527Z,10.00
2019-04-29T02:00:20.796Z,9.77
2019-04-29T02:03:00.148Z,13.23
2019-04-29T02:05:49.474Z,9.70
2019-04-29T02:08:37.560Z,12.30
2019-04-29T02:11:25.862Z,10.90
2019-04-29T02:14:13.885Z,16.07
2019-04-29T02:17:02.275Z,10.30
2019-04-29T02:19:50.115Z,10.93
2019-04-29T02:22:57.310Z,11.70
2019-04-29T02:25:40.350Z,13.40
2019-04-29T02:28:21.086Z,16.83
2019-04-29T02:31:21.030Z,12.47
2019-04-29T02:34:01.668Z,11.57
2019-04-29T02:36:42.685Z,12.10
2019-04-29T02:39:42.581Z,11.70
2019-04-29T02:42:45.574Z,11.47
2019-04-29T02:45:30.869Z,11.97
2019-04-29T02:48:11.306Z,15.23
2019-04-29T02:50:52.455Z,16.50
2019-04-29T02:53:33.764Z,16.37
2019-04-29T02:56:14.822Z,14.57
2019-04-29T02:59:00.958Z,14.70
2019-04-29T03:07:28.481Z,13.60
2019-04-29T03:10:08.931Z,14.80
2019-04-29T03:12:50.044Z,15.63
2019-04-29T03:15:32.081Z,15.33
2019-04-29T03:18:12.808Z,19.43
2019-04-29T03:21:12.838Z,15.77
2019-04-29T03:23:54.117Z,16.50
2019-04-29T03:26:34.858Z,14.97
2019-04-29T03:29:34.518Z,17.70
2019-04-29T03:32:15.851Z,16.77
2019-04-29T03:34:56.564Z,15.57
2019-04-29T03:37:37.858Z,19.70
2019-04-29T03:40:18.438Z,19.70
2019-04-29T03:42:59.087Z,19.37
2019-04-29T03:45:39.846Z,22.90
2019-04-29T03:48:21.322Z,20.40
2019-04-29T03:51:02.154Z,21.57
2019-04-29T03:53:43.426Z,21.73
2019-04-29T03:56:24.455Z,26.83
2019-04-29T03:59:05.815Z,24.40
2019-04-29T04:08:04.417Z,24.43
2019-04-29T04:10:45.284Z,23.13
2019-04-29T04:13:26.677Z,23.97
2019-04-29T04:16:10.205Z,25.63
2019-04-29T04:18:52.664Z,26.17
2019-04-29T04:21:33.863Z,29.57
2019-04-29T04:24:15.264Z,26.50
2019-04-29T04:26:56.931Z,25.40
2019-04-29T04:29:38.421Z,26.73
2019-04-29T04:32:19.212Z,26.30
2019-04-29T04:35:00.684Z,25.40
2019-04-29T04:37:41.919Z,24.40
2019-04-29T04:40:29.055Z,29.60
2019-04-29T04:43:10.621Z,25.80
2019-04-29T04:45:51.652Z,28.33
2019-04-29T04:48:32.368Z,25.77
2019-04-29T04:56:19.892Z,27.40
2019-04-29T04:59:08.237Z,23.50
2019-04-29T05:01:37.106Z,25.23
2019-04-29T05:04:06.004Z,22.93
2019-04-29T05:06:54.164Z,23.50
2019-04-29T05:09:42.172Z,25.30
2019-04-29T05:12:30.260Z,28.93
2019-04-29T05:15:18.304Z,24.27
2019-04-29T05:18:06.626Z,29.63
2019-04-29T05:20:54.767Z,24.80
2019-04-29T05:23:42.833Z,25.60
2019-04-29T05:26:31.280Z,27.93
2019-04-29T05:29:19.535Z,26.90
2019-04-29T05:32:07.573Z,28.47
2019-04-29T05:40:56.852Z,27.67
2019-04-29T05:44:03.425Z,25.23
2019-04-29T05:46:53.438Z,28.40
2019-04-29T05:55:45.483Z,22.40
2019-04-29T05:58:32.816Z,26.47
2019-04-29T06:03:59.820Z,21.57
2019-04-29T06:06:44.017Z,25.80
2019-04-29T06:09:26.711Z,22.00
2019-04-29T06:12:08.391Z,24.40
2019-04-29T06:15:29.971Z,24.30
2019-04-29T06:17:46.635Z,27.80
2019-04-29T06:20:29.591Z,25.63
2019-04-29T06:23:14.217Z,24.00
2019-04-29T06:25:56.820Z,24.70
2019-04-29T06:28:37.613Z,22.50
2019-04-29T06:31:18.163Z,23.47
2019-04-29T06:34:00.608Z,23.70
2019-04-29T06:39:47.983Z,26.13
2019-04-29T06:42:29.567Z,26.30
2019-04-29T06:45:10.097Z,26.87
2019-04-29T06:47:49.571Z,28.63
2019-04-29T06:50:37.772Z,27.43
2019-04-29T06:56:19.572Z,30.20
2019-04-29T06:59:12.100Z,24.70
2019-04-29T07:01:57.832Z,22.30
2019-04-29T07:04:45.998Z,22.97
2019-04-29T07:07:34.147Z,24.00
2019-04-29T07:10:26.869Z,21.00
2019-04-29T07:13:12.102Z,20.87
2019-04-29T07:16:00.266Z,21.27
2019-04-29T07:18:53.419Z,20.83
2019-04-29T07:21:41.792Z,16.27
2019-04-29T07:24:27.838Z,18.13
2019-04-29T07:27:08.845Z,21.70
2019-04-29T07:29:49.922Z,20.67
2019-04-29T07:32:32.302Z,23.20
2019-04-29T07:35:13.392Z,17.00
2019-04-29T07:37:54.072Z,20.53
2019-04-29T07:40:38.806Z,21.70
2019-04-29T07:43:18.464Z,23.80
2019-04-29T07:46:24.111Z,19.07
2019-04-29T07:49:05.932Z,19.30
2019-04-29T07:51:47.290Z,23.53
2019-04-29T07:54:28.982Z,20.10
2019-04-29T07:57:12.433Z,21.90
2019-04-29T07:59:52.359Z,17.40
2019-04-29T08:02:33.041Z,18.33
2019-04-29T08:05:13.808Z,21.03
2019-04-29T08:07:55.746Z,20.80
2019-04-29T08:10:36.385Z,21.23
2019-04-29T08:13:17.203Z,19.93
2019-04-29T08:15:57.710Z,18.63
2019-04-29T08:18:38.891Z,19.93
2019-04-29T08:21:19.887Z,22.00
2019-04-29T08:24:01.491Z,22.17
2019-04-29T08:26:47.289Z,21.27
2019-04-29T08:29:25.833Z,20.63
2019-04-29T08:32:06.886Z,22.60
2019-04-29T08:34:47.744Z,28.50
2019-04-29T08:37:29.681Z,22.00
2019-04-29T08:40:16.487Z,21.33
2019-04-29T08:43:15.861Z,21.27
2019-04-29T08:49:11.481Z,20.27
2019-04-29T08:51:53.963Z,21.37
2019-04-29T08:54:37.173Z,18.77
2019-04-29T08:57:18.649Z,18.53
2019-04-29T08:59:59.789Z,19.23
2019-04-29T09:02:47.163Z,18.27
2019-04-29T09:05:25.629Z,19.43
2019-04-29T09:08:06.733Z,21.50
2019-04-29T09:10:48.327Z,21.70
2019-04-29T09:13:17.276Z,21.60
2019-04-29T09:16:05.553Z,20.17
2019-04-29T09:18:54.247Z,18.10
2019-04-29T09:25:11.678Z,21.87
2019-04-29T09:34:11.335Z,15.50
2019-04-29T09:36:59.752Z,19.17
2019-04-29T09:39:47.858Z,16.67
2019-04-29T09:42:56.994Z,19.93
2019-04-29T09:46:04.020Z,16.87
2019-04-29T09:48:44.830Z,22.33
2019-04-29T09:51:27.942Z,16.67
2019-04-29T09:54:09.776Z,20.20
2019-04-29T09:56:50.252Z,18.60
2019-04-29T09:59:30.858Z,18.63
2019-04-29T10:02:18.830Z,20.43
2019-04-29T10:05:26.062Z,24.33
2019-04-29T10:08:14.234Z,22.07
2019-04-29T10:11:02.444Z,20.53
2019-04-29T10:13:50.480Z,19.53
2019-04-29T10:16:57.681Z,21.90
2019-04-29T10:20:07.911Z,21.83
2019-04-29T10:22:50.199Z,19.97
2019-04-29T10:25:29.844Z,20.73
2019-04-29T10:28:10.475Z,22.50
2019-04-29T10:30:51.812Z,20.50
2019-04-29T10:33:32.363Z,22.30
2019-04-29T10:36:16.056Z,17.07
2019-04-29T10:38:57.027Z,16.23
2019-04-29T10:41:41.715Z,19.60
2019-04-29T10:44:44.713Z,20.87
2019-04-29T10:50:26.400Z,21.30
2019-04-29T10:53:10.894Z,21.03
2019-04-29T10:55:49.740Z,23.70
2019-04-29T10:58:35.181Z,22.60
2019-04-29T11:01:14.765Z,21.33
2019-04-29T11:04:00.259Z,24.30
2019-04-29T11:06:38.743Z,18.70
2019-04-29T11:09:46.370Z,19.53
2019-04-29T11:12:26.873Z,19.27
2019-04-29T11:15:09.871Z,17.17
2019-04-29T11:17:58.432Z,20.97
2019-04-29T11:20:32.326Z,17.13
2019-04-29T11:26:31.587Z,18.37
2019-04-29T11:29:12.480Z,18.63
2019-04-29T11:31:55.791Z,20.80
2019-04-29T11:34:56.130Z,18.23
2019-04-29T11:37:37.285Z,16.67
2019-04-29T11:40:20.484Z,14.23
2019-04-29T11:42:59.928Z,17.13
2019-04-29T11:45:40.603Z,21.80
2019-04-29T11:48:21.240Z,18.37
2019-04-29T11:54:12.380Z,18.60
2019-04-29T11:56:54.681Z,15.20
2019-04-29T12:11:36.287Z,17.20
2019-04-29T12:17:42.462Z,18.10
2019-04-29T12:20:28.666Z,17.10
2019-04-29T12:23:11.097Z,19.37
2019-04-29T12:25:51.586Z,18.20
2019-04-29T12:31:51.172Z,14.13
2019-04-29T12:41:05.602Z,17.00
2019-04-29T13:02:03.213Z,17.47
2019-04-29T13:05:03.371Z,16.90
2019-04-29T13:10:52.114Z,14.03
2019-04-29T13:19:45.974Z,14.30
2019-04-29T13:22:38.671Z,14.93
2019-04-29T13:25:29.632Z,14.53
2019-04-29T13:28:30.012Z,13.93
2019-04-29T13:30:51.407Z,13.87
2019-04-29T13:33:39.671Z,13.80
2019-04-29T13:36:27.782Z,19.20
2019-04-29T13:39:16.207Z,10.63
2019-04-29T13:42:09.158Z,16.73
2019-04-29T13:45:07.524Z,12.03
2019-04-29T13:51:34.475Z,13.27
2019-04-29T13:54:27.045Z,14.43
2019-04-29T13:57:33.878Z,16.10
2019-04-29T14:00:40.705Z,13.87
2019-04-29T14:09:58.131Z,13.03
2019-04-29T14:13:13.327Z,17.97
2019-04-29T14:19:40.408Z,14.03
2019-04-29T14:55:14.925Z,12.53
2019-04-29T14:57:53.060Z,14.23
2019-04-29T15:00:41.871Z,11.53
2019-04-29T15:03:31.163Z,10.10
2019-04-29T15:06:00.272Z,10.77
2019-04-29T15:08:50.823Z,11.37
2019-04-29T15:11:58.935Z,9.90
2019-04-29T15:15:29.674Z,15.83
2019-04-29T15:18:47.342Z,9.87
2019-04-29T15:21:49.102Z,11.90
2019-04-29T15:24:36.807Z,8.30
2019-04-29T15:27:27.215Z,6.27
2019-04-29T15:33:06.530Z,11.33
2019-04-29T15:35:59.237Z,6.87
2019-04-29T15:38:47.283Z,8.73
2019-04-29T15:41:38.799Z,9.03
2019-04-29T15:44:31.533Z,7.30
2019-04-29T15:47:19.866Z,7.03
2019-04-29T15:50:06.650Z,7.33
2019-04-29T15:52:44.306Z,6.50
2019-04-29T15:55:25.682Z,8.20
2019-04-29T15:58:06.768Z,10.37
2019-04-29T16:00:52.737Z,5.83
2019-04-29T16:03:37.447Z,6.77
2019-04-29T16:15:18.527Z,7.47
2019-04-29T16:17:59.023Z,7.57
2019-04-29T16:20:40.069Z,9.67
2019-04-29T16:23:21.221Z,5.80
2019-04-29T16:28:44.337Z,16.53
2019-04-29T16:31:25.655Z,8.70
2019-04-29T16:34:06.423Z,5.57
2019-04-29T16:36:49.677Z,7.33
2019-04-29T16:39:29.825Z,6.20
2019-04-29T16:42:29.389Z,7.23
2019-04-29T16:45:12.224Z,5.60
2019-04-29T16:47:52.709Z,5.40
2019-04-29T16:50:33.365Z,5.57
2019-04-29T16:53:02.398Z,4.90
2019-04-29T16:55:35.838Z,5.27
2019-04-29T16:58:06.578Z,6.90
2019-04-29T17:06:41.623Z,5.20
2019-04-29T17:12:29.433Z,6.10
2019-04-29T17:15:35.482Z,6.10
2019-04-29T17:18:36.785Z,5.20
2019-04-29T17:21:13.745Z,6.33
2019-04-29T17:48:25.018Z,3.33
2019-04-29T17:51:13.424Z,5.93
2019-04-29T17:54:05.222Z,3.23
2019-04-29T17:57:26.389Z,3.27
2019-04-29T18:00:13.390Z,4.70
2019-04-29T18:14:49.061Z,3.60
2019-04-29T18:20:55.211Z,4.23
2019-04-29T18:26:39.782Z,4.03
2019-04-29T18:29:20.484Z,3.07
2019-04-29T18:32:05.131Z,2.50
2019-04-29T18:34:45.278Z,3.10
2019-04-29T18:37:30.368Z,2.50
2019-04-29T18:43:23.139Z,4.70
2019-04-29T18:46:06.273Z,11.33
2019-04-29T18:48:46.635Z,4.37
2019-04-29T18:51:28.764Z,2.50
2019-04-29T18:54:09.951Z,4.40
2019-04-29T18:56:50.718Z,5.27
2019-04-29T18:59:33.333Z,3.40
2019-04-29T19:02:14.882Z,2.23
2019-04-29T19:08:12.322Z,4.80
2019-04-29T19:10:50.936Z,4.00
2019-04-29T19:13:30.917Z,3.37
2019-04-29T19:16:12.674Z,4.20
2019-04-29T19:18:57.715Z,3.63
2019-04-29T19:21:37.114Z,2.57
2019-04-29T19:24:17.615Z,2.97
2019-04-29T19:27:00.546Z,4.13
2019-04-29T19:29:43.361Z,3.37
2019-04-29T19:32:24.752Z,4.70
2019-04-29T19:35:05.504Z,3.17
2019-04-29T19:37:46.126Z,5.30
2019-04-29T19:40:30.594Z,4.13
2019-04-29T19:43:10.309Z,4.50
2019-04-29T19:45:52.400Z,4.30
2019-04-29T19:48:34.785Z,3.33
2019-04-29T19:51:18.294Z,3.30
2019-04-29T19:53:58.358Z,4.30
2019-04-29T19:56:39.127Z,3.63
2019-04-29T19:59:20.368Z,4.53
2019-04-29T20:02:05.721Z,6.57
2019-04-29T20:07:31.970Z,4.20
2019-04-29T20:10:05.445Z,5.33
2019-04-29T20:12:53.061Z,6.47
2019-04-29T20:16:10.954Z,4.23
2019-04-29T20:19:16.563Z,3.67
2019-04-29T20:22:00.535Z,7.30
2019-04-29T20:24:50.732Z,3.53
2019-04-29T20:27:43.315Z,3.40
2019-04-29T20:30:31.002Z,3.37
2019-04-29T20:33:20.812Z,2.73
2019-04-29T20:36:10.549Z,4.97
2019-04-29T20:39:00.410Z,2.67
2019-04-29T20:41:50.318Z,2.83
2019-04-29T20:44:44.531Z,3.10
2019-04-29T20:47:37.417Z,3.00
2019-04-29T20:50:13.973Z,3.50
2019-04-29T20:53:15.650Z,2.37
2019-04-29T20:55:56.596Z,4.10
2019-04-29T21:01:43.304Z,5.20
2019-04-29T21:04:32.047Z,4.23
2019-04-29T21:07:06.877Z,2.93
2019-04-29T21:09:47.911Z,2.77
2019-04-29T21:18:27.118Z,3.30
2019-04-29T21:21:08.115Z,4.00
2019-04-29T21:23:48.811Z,3.03
2019-04-29T21:26:29.221Z,3.27
2019-04-29T21:29:10.642Z,7.27
2019-04-29T21:31:58.326Z,4.47
2019-04-29T21:43:27.218Z,7.47
2019-04-29T21:46:07.931Z,5.40
2019-04-29T21:48:48.547Z,3.80
2019-04-29T21:51:28.989Z,6.90
2019-04-29T21:54:14.101Z,6.47
2019-04-29T21:56:52.164Z,4.73
2019-04-29T21:59:32.551Z,3.60
2019-04-29T22:02:13.383Z,9.50
2019-04-29T22:04:55.217Z,5.87
2019-04-29T22:07:39.775Z,5.07
2019-04-29T22:10:20.019Z,4.87
2019-04-29T22:13:02.368Z,5.53
2019-04-29T22:15:43.048Z,4.57
2019-04-29T22:18:25.734Z,4.23
2019-04-29T22:21:09.714Z,5.10
2019-04-29T22:23:51.014Z,3.73
2019-04-29T22:32:42.604Z,3.57
2019-04-29T22:35:25.181Z,9.03
2019-04-29T22:38:07.899Z,2.60
2019-04-29T22:40:48.935Z,3.97
2019-04-29T22:46:29.295Z,4.97
2019-04-29T22:49:10.097Z,5.67
2019-04-29T22:51:54.540Z,5.33
2019-04-29T22:54:33.179Z,4.30
2019-04-29T22:57:15.633Z,4.63
2019-04-29T22:59:57.270Z,6.70
2019-04-29T23:02:38.244Z,5.20
2019-04-29T23:05:18.786Z,3.60
2019-04-29T23:08:00.237Z,7.53
2019-04-29T23:10:41.003Z,3.33
2019-04-29T23:13:21.813Z,3.63
2019-04-29T23:16:03.013Z,3.33
2019-04-29T23:18:45.857Z,3.83
2019-04-29T23:24:51.288Z,3.17
2019-04-29T23:27:31.944Z,5.70
2019-04-29T23:30:18.041Z,3.00
2019-04-29T23:32:57.784Z,5.03
2019-04-29T23:35:39.710Z,5.97
2019-04-29T23:38:21.164Z,5.97
2019-04-29T23:41:01.612Z,2.87
2019-04-29T23:43:42.900Z,4.03
2019-04-29T23:46:24.052Z,7.83
2019-04-29T23:49:06.655Z,3.93
2019-04-29T23:51:47.201Z,6.07
2019-04-29T23:54:27.651Z,7.30
2019-04-29T23:57:27.330Z,4.23
